createdAt,value
2022-11-28T00:22:32.060Z,20
2022-11-28T00:51:41.053Z,19
2022-11-28T01:20:43.618Z,19
2022-11-28T01:49:44.198Z,19
2022-11-28T02:18:50.880Z,16
2022-11-28T02:47:33.427Z,17
2022-11-28T03:16:35.567Z,16
2022-11-28T03:45:37.614Z,16
2022-11-28T04:14:31.607Z,16
2022-11-28T04:43:30.108Z,19
2022-11-28T05:12:32.081Z,21
2022-11-28T05:41:35.535Z,17
2022-11-28T06:10:32.863Z,17
2022-11-28T06:39:40.922Z,19
2022-11-28T07:08:24.032Z,15
2022-11-28T07:37:20.172Z,17
2022-11-28T08:06:23.641Z,20
2022-11-28T08:35:43.995Z,19
2022-11-28T09:05:06.538Z,20
2022-11-28T09:34:30.226Z,20
2022-11-28T10:03:48.173Z,20
2022-11-28T10:33:01.118Z,23
2022-11-28T11:02:06.918Z,17
2022-11-28T11:31:24.591Z,19
2022-11-28T12:00:39.871Z,19
2022-11-28T12:29:54.108Z,17
2022-11-28T12:59:13.503Z,18
2022-11-28T13:28:26.606Z,13
2022-11-28T13:57:49.578Z,13
2022-11-28T14:27:08.704Z,19
2022-11-28T14:56:19.673Z,19
2022-11-28T15:25:41.730Z,23
2022-11-28T15:55:02.856Z,25
2022-11-28T16:24:22.529Z,27
2022-11-28T16:53:38.424Z,31
2022-11-28T17:22:49.125Z,31
2022-11-28T17:51:59.733Z,29
2022-11-28T18:21:09.531Z,25
2022-11-28T18:50:29.428Z,25
2022-11-28T19:19:40.177Z,25
2022-11-28T19:48:59.080Z,24
2022-11-28T20:18:14.633Z,24
2022-11-28T20:47:27.261Z,22
2022-11-28T21:16:51.538Z,20
2022-11-28T21:46:07.356Z,22
2022-11-28T22:15:23.062Z,23
2022-11-28T22:44:47.319Z,23
2022-11-28T23:14:11.001Z,22
2022-11-28T23:43:34.805Z,19
